Time;durP1;ratioP1;P1;durP2;ratioP2;P2;SDS_P1;SDS_P2;PMS_P1;PMS_P2;Temp;Humidity;BMP_temperature;BMP_pressure;BME280_temperature;BME280_humidity;BME280_pressure;Samples;Min_cycle;Max_cycle;Signal;HPM_P1;HPM_P2
2024/03/27 00:00:49;;;;;;;;;;;8.90;99.90;;;;;;21045673;28;19923;-77
2024/03/27 00:10:50;;;;;;;;;;;8.70;99.90;;;;;;21071477;28;19912;-76
2024/03/27 00:20:51;;;;;;;;;;;8.50;99.90;;;;;;21060215;28;19916;-78
2024/03/27 00:30:51;;;;;;;;;;;8.30;99.90;;;;;;21066534;28;20007;-78
2024/03/27 00:40:52;;;;;;;;;;;8.20;99.90;;;;;;21083251;28;19967;-78
2024/03/27 00:50:53;;;;;;;;;;;7.80;99.90;;;;;;21079378;28;20240;-78
2024/03/27 01:00:54;;;;;;;;;;;7.80;99.90;;;;;;21085662;28;19916;-78
2024/03/27 01:10:54;;;;;;;;;;;7.90;99.90;;;;;;21081537;28;19912;-78
2024/03/27 01:20:55;;;;;;;;;;;7.90;99.90;;;;;;21086351;28;20397;-78
2024/03/27 01:30:55;;;;;;;;;;;8.00;99.90;;;;;;21052357;28;19923;-78
2024/03/27 01:40:56;;;;;;;;;;;7.80;99.90;;;;;;21063464;28;20260;-77
2024/03/27 01:50:57;;;;;;;;;;;7.30;99.90;;;;;;21073101;28;19912;-78
2024/03/27 02:00:57;;;;;;;;;;;7.20;99.90;;;;;;21042512;28;19923;-78
2024/03/27 02:10:58;;;;;;;;;;;6.60;99.90;;;;;;21045524;28;19912;-78
2024/03/27 02:20:59;;;;;;;;;;;6.30;99.90;;;;;;21076950;28;19920;-78
2024/03/27 02:30:59;;;;;;;;;;;6.40;99.90;;;;;;21062153;28;20010;-77
2024/03/27 02:41:00;;;;;;;;;;;6.20;99.90;;;;;;21079294;28;19917;-78
2024/03/27 02:51:01;;;;;;;;;;;6.40;99.90;;;;;;21045327;28;19912;-78
2024/03/27 03:01:01;;;;;;;;;;;6.70;99.90;;;;;;21077240;28;19989;-77
2024/03/27 03:11:02;;;;;;;;;;;6.50;99.90;;;;;;21073262;28;19958;-78
2024/03/27 03:21:03;;;;;;;;;;;6.30;99.90;;;;;;21057696;28;19970;-78
2024/03/27 03:31:05;;;;;;;;;;;5.70;99.90;;;;;;21049620;28;19916;-78
2024/03/27 03:41:10;;;;;;;;;;;5.60;99.90;;;;;;21066390;28;20003;-78
2024/03/27 03:51:11;;;;;;;;;;;5.90;99.90;;;;;;21071800;28;19916;-77
2024/03/27 04:01:11;;;;;;;;;;;5.70;99.90;;;;;;21090535;28;20339;-78
2024/03/27 04:11:12;;;;;;;;;;;5.90;99.90;;;;;;21056185;28;19919;-78
2024/03/27 04:21:12;;;;;;;;;;;5.60;99.90;;;;;;21059659;28;19939;-78
2024/03/27 04:31:13;;;;;;;;;;;5.90;99.90;;;;;;21082635;28;19951;-78
2024/03/27 04:41:14;;;;;;;;;;;5.90;99.90;;;;;;21075624;28;20405;-78
2024/03/27 04:51:14;;;;;;;;;;;5.80;99.90;;;;;;21084958;28;19913;-78
2024/03/27 05:01:15;;;;;;;;;;;5.80;99.90;;;;;;21080181;28;20000;-78
2024/03/27 05:11:16;;;;;;;;;;;5.90;99.90;;;;;;21091514;28;19995;-79
2024/03/27 05:21:17;;;;;;;;;;;6.00;99.90;;;;;;21065676;28;19920;-77
2024/03/27 05:31:18;;;;;;;;;;;5.90;99.90;;;;;;21068077;28;19920;-78
2024/03/27 05:41:19;;;;;;;;;;;5.80;99.90;;;;;;21067762;28;20314;-79
2024/03/27 05:51:19;;;;;;;;;;;6.00;99.90;;;;;;21071954;28;19920;-79
2024/03/27 06:01:20;;;;;;;;;;;6.20;99.90;;;;;;21080109;28;20412;-78
2024/03/27 06:11:21;;;;;;;;;;;6.30;99.90;;;;;;21075101;28;19957;-78
2024/03/27 06:21:21;;;;;;;;;;;6.50;99.90;;;;;;21066313;28;20349;-77
2024/03/27 06:31:22;;;;;;;;;;;6.90;99.90;;;;;;21061778;28;19920;-77
2024/03/27 06:41:22;;;;;;;;;;;7.30;99.90;;;;;;21069151;28;19924;-77
2024/03/27 06:51:23;;;;;;;;;;;7.80;99.90;;;;;;21066346;28;20405;-76
2024/03/27 07:01:24;;;;;;;;;;;8.20;99.90;;;;;;21049451;28;19985;-77
2024/03/27 07:11:24;;;;;;;;;;;8.40;99.90;;;;;;21076190;28;19962;-78
2024/03/27 07:21:25;;;;;;;;;;;8.70;99.90;;;;;;21078188;28;19916;-78
2024/03/27 07:31:26;;;;;;;;;;;8.70;99.90;;;;;;21079647;28;19912;-77
2024/03/27 07:41:27;;;;;;;;;;;8.20;99.90;;;;;;21091837;28;20451;-78
2024/03/27 07:51:27;;;;;;;;;;;7.90;99.90;;;;;;21090683;28;19954;-77
2024/03/27 08:01:28;;;;;;;;;;;7.80;99.90;;;;;;21086311;28;19920;-78
2024/03/27 08:11:28;;;;;;;;;;;7.90;99.90;;;;;;21071183;28;19918;-77
2024/03/27 08:21:29;;;;;;;;;;;7.90;99.90;;;;;;21083811;28;19916;-76
2024/03/27 08:31:30;;;;;;;;;;;7.70;99.90;;;;;;21088926;28;19940;-77
2024/03/27 08:41:30;;;;;;;;;;;7.80;99.90;;;;;;21080784;28;19923;-79
2024/03/27 08:51:33;;;;;;;;;;;7.70;99.90;;;;;;21088620;28;19928;-77
2024/03/27 09:01:34;;;;;;;;;;;7.70;99.90;;;;;;21080723;28;19924;-77
2024/03/27 09:11:34;;;;;;;;;;;7.90;99.90;;;;;;21060455;28;20302;-76
2024/03/27 09:21:35;;;;;;;;;;;7.70;99.90;;;;;;21081364;28;19927;-77
2024/03/27 09:31:36;;;;;;;;;;;7.80;99.90;;;;;;21078416;28;20374;-78
2024/03/27 09:41:36;;;;;;;;;;;7.70;99.90;;;;;;21082064;28;19951;-77
2024/03/27 09:51:38;;;;;;;;;;;7.90;99.90;;;;;;21079408;28;19951;-77
2024/03/27 10:01:41;;;;;;;;;;;7.80;99.90;;;;;;21082218;28;20003;-76
2024/03/27 10:11:42;;;;;;;;;;;7.40;99.90;;;;;;21084183;28;19919;-77
2024/03/27 10:21:50;;;;;;;;;;;7.30;99.90;;;;;;21149947;27;19916;-78
2024/03/27 10:31:51;;;;;;;;;;;7.30;99.90;;;;;;21147589;28;19918;-76
2024/03/27 10:41:53;;;;;;;;;;;6.90;99.90;;;;;;21154538;28;19912;-77
2024/03/27 10:51:53;;;;;;;;;;;7.10;99.90;;;;;;21142719;28;19934;-78
2024/03/27 11:02:00;;;;;;;;;;;7.30;99.90;;;;;;21129231;28;20006;-77
2024/03/27 11:12:02;;;;;;;;;;;7.10;99.90;;;;;;21152116;28;19954;-79
2024/03/27 11:22:15;;;;;;;;;;;7.00;99.90;;;;;;21154026;28;20321;-78
2024/03/27 11:32:16;;;;;;;;;;;6.90;99.90;;;;;;21103666;28;19961;-78
2024/03/27 11:42:16;;;;;;;;;;;6.90;99.90;;;;;;21087113;28;19916;-77
2024/03/27 11:52:17;;;;;;;;;;;7.00;99.90;;;;;;21085387;28;20291;-77
2024/03/27 12:02:19;;;;;;;;;;;6.80;99.90;;;;;;21045978;28;19912;-77
2024/03/27 12:12:19;;;;;;;;;;;6.70;99.90;;;;;;21012624;28;19916;-77
2024/03/27 12:22:25;;;;;;;;;;;7.00;99.90;;;;;;21028067;28;19955;-76
2024/03/27 12:32:27;;;;;;;;;;;7.30;99.90;;;;;;21026601;28;19916;-77
2024/03/27 12:42:28;;;;;;;;;;;7.00;99.90;;;;;;21047740;28;19912;-77
2024/03/27 12:52:28;;;;;;;;;;;6.90;99.90;;;;;;21074622;28;19969;-77
2024/03/27 13:02:29;;;;;;;;;;;6.90;99.90;;;;;;21078036;28;19990;-77
2024/03/27 13:12:29;;;;;;;;;;;7.10;99.90;;;;;;21076658;28;19948;-78
2024/03/27 13:22:30;;;;;;;;;;;7.20;99.90;;;;;;21076583;28;19912;-77
2024/03/27 13:32:31;;;;;;;;;;;7.30;99.90;;;;;;21078270;28;19980;-78
2024/03/27 13:42:31;;;;;;;;;;;7.30;99.90;;;;;;21077579;28;19919;-77
2024/03/27 13:52:35;;;;;;;;;;;7.40;99.90;;;;;;21071367;28;19916;-77
2024/03/27 14:02:36;;;;;;;;;;;7.50;99.90;;;;;;21073482;28;19912;-78
2024/03/27 14:12:36;;;;;;;;;;;7.20;99.90;;;;;;21069893;28;19920;-77
2024/03/27 14:22:37;;;;;;;;;;;7.10;99.90;;;;;;21082876;28;19922;-78
2024/03/27 14:32:38;;;;;;;;;;;7.20;99.90;;;;;;21076716;28;19985;-77
2024/03/27 14:42:38;;;;;;;;;;;6.90;99.90;;;;;;21070606;28;19958;-77
2024/03/27 14:52:39;;;;;;;;;;;6.90;99.90;;;;;;21077444;28;19923;-79
2024/03/27 15:02:40;;;;;;;;;;;6.70;99.90;;;;;;21080574;28;19912;-78
2024/03/27 15:12:40;;;;;;;;;;;6.50;99.90;;;;;;21088289;28;20287;-78
2024/03/27 15:22:41;;;;;;;;;;;6.70;99.90;;;;;;21085356;28;19912;-78
2024/03/27 15:32:42;;;;;;;;;;;6.70;99.90;;;;;;21070825;28;19916;-79
2024/03/27 15:42:42;;;;;;;;;;;6.50;99.90;;;;;;21102122;28;19966;-78
2024/03/27 15:52:43;;;;;;;;;;;6.30;99.90;;;;;;21083879;28;20386;-79
2024/03/27 16:02:44;;;;;;;;;;;6.30;99.90;;;;;;21078319;28;20346;-79
2024/03/27 16:12:45;;;;;;;;;;;6.30;99.90;;;;;;21085591;28;19916;-78
2024/03/27 16:22:45;;;;;;;;;;;6.30;99.90;;;;;;21089110;28;19912;-79
2024/03/27 16:32:46;;;;;;;;;;;6.30;99.90;;;;;;21074767;28;20011;-78
2024/03/27 16:42:47;;;;;;;;;;;6.10;99.90;;;;;;21067489;28;20327;-76
2024/03/27 16:52:48;;;;;;;;;;;6.10;99.90;;;;;;21041002;28;19927;-76
2024/03/27 17:02:48;;;;;;;;;;;6.00;99.90;;;;;;21079024;28;19931;-78
2024/03/27 17:12:49;;;;;;;;;;;6.10;99.90;;;;;;21075550;28;19916;-76
2024/03/27 17:22:50;;;;;;;;;;;6.00;99.90;;;;;;21074470;28;19920;-78
2024/03/27 17:32:50;;;;;;;;;;;5.90;99.90;;;;;;21074933;28;20532;-77
2024/03/27 17:42:51;;;;;;;;;;;5.90;99.90;;;;;;21071253;28;19912;-76
2024/03/27 17:52:51;;;;;;;;;;;5.90;99.90;;;;;;21075025;28;19938;-78
2024/03/27 18:02:52;;;;;;;;;;;5.90;99.90;;;;;;21078447;28;19938;-78
2024/03/27 18:12:53;;;;;;;;;;;5.80;99.90;;;;;;21076625;28;19916;-79
2024/03/27 18:22:54;;;;;;;;;;;5.40;99.90;;;;;;21074202;28;19919;-77
2024/03/27 18:32:54;;;;;;;;;;;5.30;99.90;;;;;;21074525;28;20005;-78
2024/03/27 18:42:55;;;;;;;;;;;5.10;99.90;;;;;;21098555;28;20371;-78
2024/03/27 18:52:56;;;;;;;;;;;5.00;99.90;;;;;;21080845;28;19916;-77
2024/03/27 19:02:56;;;;;;;;;;;5.10;99.90;;;;;;21096724;28;20354;-77
2024/03/27 19:12:58;;;;;;;;;;;5.10;99.90;;;;;;21086303;28;19942;-76
2024/03/27 19:22:59;;;;;;;;;;;4.90;99.90;;;;;;21085207;28;19912;-77
2024/03/27 19:32:59;;;;;;;;;;;4.70;99.90;;;;;;21075760;28;20462;-77
2024/03/27 19:43:00;;;;;;;;;;;4.70;99.90;;;;;;21082055;28;19915;-77
2024/03/27 19:53:01;;;;;;;;;;;4.70;99.90;;;;;;21083030;28;19916;-77
2024/03/27 20:03:02;;;;;;;;;;;4.70;99.90;;;;;;21083643;28;19912;-78
2024/03/27 20:13:02;;;;;;;;;;;4.70;99.90;;;;;;21097251;28;20006;-78
2024/03/27 20:23:03;;;;;;;;;;;4.60;99.90;;;;;;21087527;28;20283;-78
2024/03/27 20:33:05;;;;;;;;;;;4.60;99.90;;;;;;21051285;28;19931;-78
2024/03/27 20:43:06;;;;;;;;;;;4.30;99.90;;;;;;21053010;28;19975;-77
2024/03/27 20:53:07;;;;;;;;;;;4.20;99.90;;;;;;21045789;28;20066;-78
2024/03/27 21:03:07;;;;;;;;;;;4.10;99.90;;;;;;21054270;28;19995;-78
2024/03/27 21:13:08;;;;;;;;;;;4.20;99.90;;;;;;21044387;28;19924;-77
2024/03/27 21:23:08;;;;;;;;;;;4.10;99.90;;;;;;21027103;28;19920;-77
2024/03/27 21:33:09;;;;;;;;;;;3.90;99.90;;;;;;21095003;28;19983;-79
2024/03/27 21:43:10;;;;;;;;;;;3.50;99.90;;;;;;21095251;28;19912;-78
2024/03/27 21:53:10;;;;;;;;;;;3.10;99.90;;;;;;21081047;28;20020;-78
2024/03/27 22:03:11;;;;;;;;;;;2.70;99.90;;;;;;21084807;28;20386;-78
2024/03/27 22:13:12;;;;;;;;;;;2.80;99.90;;;;;;21081523;28;20006;-77
2024/03/27 22:23:12;;;;;;;;;;;2.80;99.90;;;;;;21076608;28;20363;-77
2024/03/27 22:33:14;;;;;;;;;;;2.50;99.90;;;;;;21079902;28;19916;-78
2024/03/27 22:43:15;;;;;;;;;;;2.70;99.90;;;;;;21089447;28;19916;-77
2024/03/27 22:53:16;;;;;;;;;;;2.70;99.90;;;;;;21079488;28;19923;-77
2024/03/27 23:03:16;;;;;;;;;;;2.20;99.90;;;;;;21076772;28;19913;-77
2024/03/27 23:13:17;;;;;;;;;;;1.80;99.90;;;;;;21073582;28;19955;-77
2024/03/27 23:23:17;;;;;;;;;;;1.70;99.90;;;;;;21080160;28;19966;-78
2024/03/27 23:33:18;;;;;;;;;;;1.80;99.90;;;;;;21088483;28;20282;-78
2024/03/27 23:43:19;;;;;;;;;;;2.30;99.90;;;;;;21084285;28;19973;-77
2024/03/27 23:53:20;;;;;;;;;;;2.30;99.90;;;;;;21073730;28;20282;-78
